createdAt,value
2023-03-21T00:01:50.645Z,10.76
2023-03-21T00:04:19.278Z,10.70
2023-03-21T00:06:46.638Z,10.71
2023-03-21T00:09:13.969Z,10.65
2023-03-21T00:11:41.507Z,10.83
2023-03-21T00:14:14.327Z,10.93
2023-03-21T00:16:45.620Z,10.93
2023-03-21T00:19:14.458Z,10.90
2023-03-21T00:22:03.301Z,10.90
2023-03-21T00:24:31.336Z,10.93
2023-03-21T00:27:12.482Z,10.88
2023-03-21T00:29:45.933Z,10.76
2023-03-21T00:32:13.556Z,10.80
2023-03-21T00:34:57.087Z,10.85
2023-03-21T00:37:29.410Z,10.95
2023-03-21T00:39:56.750Z,10.95
2023-03-21T00:42:24.113Z,10.97
2023-03-21T00:44:51.413Z,10.96
2023-03-21T00:47:18.753Z,10.92
2023-03-21T00:49:46.071Z,10.86
2023-03-21T00:52:18.582Z,10.85
2023-03-21T00:54:53.261Z,10.87
2023-03-21T00:57:29.370Z,10.88
2023-03-21T00:59:59.802Z,10.89
2023-03-21T01:02:27.246Z,10.63
2023-03-21T01:04:54.601Z,10.69
2023-03-21T01:07:22.023Z,10.50
2023-03-21T01:09:50.825Z,10.46
2023-03-21T01:12:19.431Z,10.48
2023-03-21T01:14:46.690Z,10.38
2023-03-21T01:17:13.956Z,10.32
2023-03-21T01:19:51.494Z,10.40
2023-03-21T01:22:19.306Z,10.46
2023-03-21T01:24:55.156Z,10.51
2023-03-21T01:27:25.775Z,10.37
2023-03-21T01:29:53.043Z,10.45
2023-03-21T01:32:20.324Z,10.33
2023-03-21T01:34:47.620Z,10.28
2023-03-21T01:37:17.665Z,10.20
2023-03-21T01:39:44.927Z,10.30
2023-03-21T01:42:14.087Z,10.38
2023-03-21T01:44:54.730Z,10.40
2023-03-21T01:47:22.615Z,10.37
2023-03-21T01:49:52.579Z,10.35
2023-03-21T01:52:35.797Z,10.47
2023-03-21T01:55:05.427Z,10.41
2023-03-21T01:57:42.401Z,10.35
2023-03-21T02:00:15.150Z,10.47
2023-03-21T02:02:58.057Z,10.30
2023-03-21T02:05:34.314Z,10.45
2023-03-21T02:08:01.890Z,10.33
2023-03-21T02:10:30.898Z,10.28
2023-03-21T02:13:09.464Z,10.25
2023-03-21T02:15:39.158Z,10.19
2023-03-21T02:18:11.262Z,10.21
2023-03-21T02:20:56.598Z,10.23
2023-03-21T02:23:48.473Z,10.22
2023-03-21T02:26:28.474Z,10.21
2023-03-21T02:29:03.885Z,10.11
2023-03-21T02:31:42.116Z,10.00
2023-03-21T02:34:28.237Z,10.15
2023-03-21T02:37:05.696Z,10.14
2023-03-21T02:39:41.171Z,10.19
2023-03-21T02:42:10.060Z,10.24
2023-03-21T02:44:42.828Z,10.04
2023-03-21T02:47:12.775Z,10.13
2023-03-21T02:49:43.463Z,9.95
2023-03-21T02:52:25.500Z,9.77
2023-03-21T02:55:00.980Z,9.70
2023-03-21T02:57:40.157Z,9.90
2023-03-21T03:00:16.547Z,9.91
2023-03-21T03:02:44.127Z,9.77
2023-03-21T03:05:21.364Z,9.70
2023-03-21T03:07:57.515Z,9.60
2023-03-21T03:10:32.416Z,9.58
2023-03-21T03:13:06.270Z,9.56
2023-03-21T03:15:38.507Z,9.44
2023-03-21T03:18:10.265Z,9.20
2023-03-21T03:20:45.328Z,9.27
2023-03-21T03:23:20.326Z,9.35
2023-03-21T03:25:50.213Z,9.18
2023-03-21T03:28:19.050Z,9.37
2023-03-21T03:31:05.140Z,9.39
2023-03-21T03:33:37.065Z,9.43
2023-03-21T03:36:06.916Z,9.47
2023-03-21T03:38:37.812Z,9.37
2023-03-21T03:41:08.616Z,9.36
2023-03-21T03:43:40.482Z,9.37
2023-03-21T03:46:12.257Z,9.44
2023-03-21T03:48:46.401Z,9.24
2023-03-21T03:51:16.721Z,9.38
2023-03-21T03:53:46.971Z,9.38
2023-03-21T03:56:14.711Z,9.51
2023-03-21T03:58:45.781Z,9.53
2023-03-21T04:01:13.989Z,9.49
2023-03-21T04:03:49.877Z,9.52
2023-03-21T04:06:18.582Z,9.44
2023-03-21T04:08:47.186Z,9.50
2023-03-21T04:11:14.768Z,9.39
2023-03-21T04:13:42.116Z,9.32
2023-03-21T04:16:10.135Z,9.34
2023-03-21T04:18:39.063Z,9.31
2023-03-21T04:21:08.228Z,9.29
2023-03-21T04:23:35.752Z,9.39
2023-03-21T04:26:05.089Z,9.40
2023-03-21T04:28:33.392Z,9.37
2023-03-21T04:31:06.903Z,9.37
2023-03-21T04:33:38.477Z,9.45
2023-03-21T04:36:06.593Z,9.49
2023-03-21T04:38:33.960Z,9.49
2023-03-21T04:41:02.066Z,9.49
2023-03-21T04:43:30.900Z,9.40
2023-03-21T04:45:58.224Z,9.38
2023-03-21T04:48:26.106Z,9.25
2023-03-21T04:50:53.427Z,9.36
2023-03-21T04:53:21.120Z,9.32
2023-03-21T04:55:51.032Z,9.23
2023-03-21T04:58:20.260Z,9.26
2023-03-21T05:00:49.378Z,9.30
2023-03-21T05:03:19.713Z,9.46
2023-03-21T05:05:47.646Z,9.44
2023-03-21T05:08:15.598Z,9.41
2023-03-21T05:10:43.246Z,9.40
2023-03-21T05:13:10.792Z,9.38
2023-03-21T05:15:38.842Z,9.35
2023-03-21T05:18:11.654Z,9.41
2023-03-21T05:20:42.530Z,9.49
2023-03-21T05:23:10.815Z,9.56
2023-03-21T05:25:38.518Z,9.53
2023-03-21T05:28:06.081Z,9.48
2023-03-21T05:30:33.544Z,9.55
2023-03-21T05:33:01.156Z,9.50
2023-03-21T05:35:29.812Z,9.58
2023-03-21T05:37:57.259Z,9.44
2023-03-21T05:40:24.541Z,9.56
2023-03-21T05:42:51.819Z,9.56
2023-03-21T05:45:19.349Z,9.66
2023-03-21T05:47:46.699Z,9.71
2023-03-21T05:50:14.388Z,9.72
2023-03-21T05:52:43.012Z,9.34
2023-03-21T05:55:10.531Z,9.51
2023-03-21T05:57:40.754Z,9.38
2023-03-21T06:00:09.411Z,9.46
2023-03-21T06:02:36.785Z,9.65
2023-03-21T06:05:04.270Z,9.44
2023-03-21T06:07:31.548Z,9.62
2023-03-21T06:10:00.442Z,9.59
2023-03-21T06:12:27.866Z,9.67
2023-03-21T06:14:55.207Z,9.51
2023-03-21T06:17:22.473Z,9.73
2023-03-21T06:19:49.745Z,9.68
2023-03-21T06:22:17.197Z,9.76
2023-03-21T06:24:44.474Z,9.98
2023-03-21T06:27:13.055Z,9.97
2023-03-21T06:29:41.196Z,10.06
2023-03-21T06:32:08.493Z,9.86
2023-03-21T06:34:37.030Z,9.74
2023-03-21T06:37:05.755Z,9.78
2023-03-21T06:39:33.723Z,9.71
2023-03-21T06:42:01.148Z,9.66
2023-03-21T06:44:30.183Z,9.67
2023-03-21T06:46:57.477Z,9.61
2023-03-21T06:49:25.951Z,9.57
2023-03-21T06:51:53.248Z,9.75
2023-03-21T06:54:20.983Z,9.69
2023-03-21T06:56:48.358Z,9.57
2023-03-21T06:59:15.702Z,9.61
2023-03-21T07:01:44.411Z,9.83
2023-03-21T07:04:11.823Z,9.96
2023-03-21T07:06:39.181Z,9.76
2023-03-21T07:09:07.097Z,9.82
2023-03-21T07:11:34.398Z,10.02
2023-03-21T07:14:01.657Z,10.04
2023-03-21T07:16:28.945Z,10.04
2023-03-21T07:18:57.650Z,10.31
2023-03-21T07:21:24.955Z,10.39
2023-03-21T07:23:52.259Z,10.37
2023-03-21T07:26:19.520Z,10.48
2023-03-21T07:28:46.784Z,10.68
2023-03-21T07:31:15.044Z,10.63
2023-03-21T07:33:42.391Z,10.33
2023-03-21T07:36:13.380Z,10.21
2023-03-21T07:38:41.161Z,10.37
2023-03-21T07:41:08.592Z,10.52
2023-03-21T07:43:37.226Z,10.30
2023-03-21T07:46:06.862Z,10.23
2023-03-21T07:48:34.282Z,10.29
2023-03-21T07:51:02.330Z,10.24
2023-03-21T07:53:31.077Z,10.54
2023-03-21T07:55:58.365Z,10.35
2023-03-21T07:58:26.240Z,10.51
2023-03-21T08:00:53.877Z,10.45
2023-03-21T08:03:21.244Z,10.34
2023-03-21T08:05:48.564Z,10.59
2023-03-21T08:08:15.831Z,10.91
2023-03-21T08:10:44.729Z,10.82
2023-03-21T08:13:13.755Z,11.20
2023-03-21T08:15:42.192Z,11.33
2023-03-21T08:18:09.950Z,11.43
2023-03-21T08:20:37.217Z,11.67
2023-03-21T08:23:04.702Z,11.81
2023-03-21T08:25:32.109Z,12.01
2023-03-21T08:28:00.761Z,12.09
2023-03-21T08:30:29.108Z,11.95
2023-03-21T08:33:01.394Z,12.08
2023-03-21T08:35:29.655Z,12.17
2023-03-21T08:37:57.218Z,12.15
2023-03-21T08:40:24.590Z,11.96
2023-03-21T08:42:52.174Z,11.77
2023-03-21T08:45:20.932Z,12.11
2023-03-21T08:47:48.367Z,11.95
2023-03-21T08:50:17.328Z,12.16
2023-03-21T08:52:44.805Z,11.98
2023-03-21T08:55:12.800Z,12.27
2023-03-21T08:57:40.154Z,12.53
2023-03-21T09:00:12.168Z,12.47
2023-03-21T09:02:41.187Z,12.72
2023-03-21T09:05:10.170Z,12.91
2023-03-21T09:07:37.529Z,12.85
2023-03-21T09:10:21.871Z,12.26
2023-03-21T09:12:50.014Z,12.71
2023-03-21T09:15:18.487Z,13.03
2023-03-21T09:17:50.037Z,13.20
2023-03-21T09:20:18.788Z,12.83
2023-03-21T09:22:46.642Z,13.21
2023-03-21T09:25:13.989Z,13.54
2023-03-21T09:27:42.210Z,13.60
2023-03-21T09:30:10.586Z,13.61
2023-03-21T09:32:37.940Z,13.52
2023-03-21T09:35:07.870Z,13.89
2023-03-21T09:37:38.289Z,13.93
2023-03-21T09:40:07.946Z,13.85
2023-03-21T09:42:38.475Z,14.08
2023-03-21T09:45:11.358Z,14.07
2023-03-21T09:47:45.284Z,13.87
2023-03-21T09:50:17.142Z,13.95
2023-03-21T09:52:48.207Z,13.73
2023-03-21T09:55:19.931Z,13.42
2023-03-21T09:57:48.562Z,13.45
2023-03-21T10:00:20.592Z,13.54
2023-03-21T10:02:51.778Z,13.66
2023-03-21T10:05:21.696Z,13.95
2023-03-21T10:07:53.677Z,14.19
2023-03-21T10:10:23.631Z,14.37
2023-03-21T10:12:52.933Z,14.39
2023-03-21T10:15:21.383Z,14.39
2023-03-21T10:17:52.882Z,14.41
2023-03-21T10:20:23.186Z,14.04
2023-03-21T10:22:51.710Z,13.92
2023-03-21T10:25:20.749Z,13.71
2023-03-21T10:27:49.485Z,13.69
2023-03-21T10:30:24.263Z,13.82
2023-03-21T10:32:52.279Z,14.19
2023-03-21T10:35:20.121Z,14.33
2023-03-21T10:37:48.949Z,14.46
2023-03-21T10:40:17.478Z,14.72
2023-03-21T10:42:45.601Z,14.42
2023-03-21T10:45:17.522Z,14.56
2023-03-21T10:47:48.149Z,14.48
2023-03-21T10:50:17.519Z,14.79
2023-03-21T10:52:47.349Z,14.81
2023-03-21T10:55:21.350Z,14.95
2023-03-21T10:57:48.933Z,14.44
2023-03-21T11:00:21.690Z,14.71
2023-03-21T11:02:49.904Z,14.90
2023-03-21T11:05:20.902Z,15.23
2023-03-21T11:07:48.294Z,15.52
2023-03-21T11:10:19.925Z,15.84
2023-03-21T11:12:58.673Z,15.67
2023-03-21T11:15:28.631Z,15.68
2023-03-21T11:17:55.927Z,15.52
2023-03-21T11:20:23.718Z,15.22
2023-03-21T11:22:55.289Z,15.16
2023-03-21T11:25:23.967Z,15.38
2023-03-21T11:27:52.881Z,15.58
2023-03-21T11:30:23.235Z,15.58
2023-03-21T11:32:53.134Z,15.82
2023-03-21T11:35:21.925Z,16.04
2023-03-21T11:37:53.176Z,16.13
2023-03-21T11:40:21.638Z,16.10
2023-03-21T11:42:51.575Z,16.16
2023-03-21T11:45:20.152Z,16.32
2023-03-21T11:47:50.646Z,16.41
2023-03-21T11:50:19.325Z,16.29
2023-03-21T11:52:52.203Z,16.22
2023-03-21T11:55:24.238Z,16.19
2023-03-21T11:57:58.014Z,15.77
2023-03-21T12:00:30.575Z,15.69
2023-03-21T12:03:07.459Z,15.42
2023-03-21T12:05:36.441Z,15.59
2023-03-21T12:08:08.227Z,15.68
2023-03-21T12:10:39.087Z,15.85
2023-03-21T12:13:14.315Z,16.20
2023-03-21T12:15:44.457Z,16.06
2023-03-21T12:18:17.557Z,15.81
2023-03-21T12:20:47.589Z,15.84
2023-03-21T12:23:30.558Z,16.18
2023-03-21T12:26:04.725Z,16.38
2023-03-21T12:28:34.985Z,16.42
2023-03-21T12:31:08.387Z,16.47
2023-03-21T12:33:43.129Z,16.06
2023-03-21T12:36:18.421Z,16.11
2023-03-21T12:38:54.305Z,16.28
2023-03-21T12:41:24.128Z,16.29
2023-03-21T12:43:55.433Z,16.27
2023-03-21T12:46:25.260Z,16.41
2023-03-21T12:48:57.548Z,16.42
2023-03-21T12:51:27.324Z,16.52
2023-03-21T12:54:01.568Z,16.79
2023-03-21T12:56:31.482Z,16.86
2023-03-21T12:59:01.027Z,16.95
2023-03-21T13:01:29.457Z,17.03
2023-03-21T13:04:07.431Z,16.90
2023-03-21T13:06:36.577Z,15.84
2023-03-21T13:09:07.535Z,16.13
2023-03-21T13:11:35.290Z,15.81
2023-03-21T13:14:04.521Z,15.60
2023-03-21T13:16:34.543Z,15.78
2023-03-21T13:19:06.528Z,15.84
2023-03-21T13:21:41.005Z,15.73
2023-03-21T13:24:20.168Z,16.14
2023-03-21T13:26:50.804Z,16.25
2023-03-21T13:29:24.202Z,16.40
2023-03-21T13:31:55.212Z,16.42
2023-03-21T13:34:26.683Z,16.59
2023-03-21T13:36:54.172Z,16.85
2023-03-21T13:39:25.161Z,16.86
2023-03-21T13:41:53.233Z,16.82
2023-03-21T13:44:24.175Z,16.86
2023-03-21T13:46:56.988Z,16.76
2023-03-21T13:49:30.132Z,16.62
2023-03-21T13:51:58.423Z,16.66
2023-03-21T13:54:29.710Z,16.89
2023-03-21T13:57:00.966Z,16.97
2023-03-21T13:59:42.492Z,16.73
2023-03-21T14:02:29.058Z,16.82
2023-03-21T14:05:05.403Z,17.00
2023-03-21T14:07:34.662Z,17.13
2023-03-21T14:10:05.051Z,17.26
2023-03-21T14:12:37.721Z,17.38
2023-03-21T14:15:15.770Z,17.48
2023-03-21T14:17:50.335Z,16.83
2023-03-21T14:20:21.249Z,16.61
2023-03-21T14:22:48.918Z,16.48
2023-03-21T14:25:17.237Z,16.90
2023-03-21T14:27:46.583Z,17.08
2023-03-21T14:30:20.904Z,16.94
2023-03-21T14:32:48.573Z,17.00
2023-03-21T14:35:16.063Z,17.00
2023-03-21T14:37:46.257Z,16.90
2023-03-21T14:40:19.993Z,16.90
2023-03-21T14:42:48.182Z,16.66
2023-03-21T14:45:18.866Z,16.55
2023-03-21T14:47:55.407Z,16.48
2023-03-21T14:50:23.503Z,16.37
2023-03-21T14:52:53.735Z,16.41
2023-03-21T14:55:21.190Z,16.42
2023-03-21T14:57:49.358Z,16.42
2023-03-21T15:00:21.551Z,16.39
2023-03-21T15:02:48.927Z,16.25
2023-03-21T15:05:17.810Z,16.27
2023-03-21T15:07:53.042Z,16.50
2023-03-21T15:10:22.059Z,16.28
2023-03-21T15:12:53.101Z,16.31
2023-03-21T15:15:20.983Z,16.19
2023-03-21T15:17:48.420Z,16.26
2023-03-21T15:20:18.257Z,16.20
2023-03-21T15:22:46.793Z,16.22
2023-03-21T15:25:18.309Z,16.15
2023-03-21T15:27:47.115Z,16.15
2023-03-21T15:30:20.192Z,16.19
2023-03-21T15:32:48.559Z,16.16
2023-03-21T15:35:16.898Z,16.20
2023-03-21T15:37:44.269Z,16.21
2023-03-21T15:40:20.327Z,16.24
2023-03-21T15:42:48.958Z,16.27
2023-03-21T15:45:19.841Z,16.13
2023-03-21T15:47:54.817Z,16.17
2023-03-21T15:50:30.260Z,16.09
2023-03-21T15:53:00.201Z,15.96
2023-03-21T15:55:29.424Z,15.88
2023-03-21T15:58:00.944Z,15.90
2023-03-21T16:00:32.868Z,15.78
2023-03-21T16:03:04.861Z,15.78
2023-03-21T16:05:33.148Z,15.85
2023-03-21T16:08:03.740Z,15.90
2023-03-21T16:10:32.406Z,16.01
2023-03-21T16:13:01.060Z,16.02
2023-03-21T16:15:28.375Z,15.98
2023-03-21T16:17:57.485Z,16.16
2023-03-21T16:20:26.074Z,16.34
2023-03-21T16:22:53.335Z,16.43
2023-03-21T16:25:21.690Z,16.67
2023-03-21T16:27:49.589Z,16.59
2023-03-21T16:30:20.411Z,16.57
2023-03-21T16:32:47.774Z,16.70
2023-03-21T16:35:15.312Z,16.79
2023-03-21T16:37:42.890Z,16.76
2023-03-21T16:40:17.315Z,16.72
2023-03-21T16:42:45.465Z,16.55
2023-03-21T16:45:12.924Z,16.44
2023-03-21T16:47:41.576Z,16.69
2023-03-21T16:50:20.994Z,16.63
2023-03-21T16:52:48.368Z,16.76
2023-03-21T16:55:15.769Z,16.59
2023-03-21T16:57:44.002Z,16.43
2023-03-21T17:00:15.170Z,16.36
2023-03-21T17:02:43.920Z,16.13
2023-03-21T17:05:12.243Z,16.00
2023-03-21T17:07:39.624Z,15.92
2023-03-21T17:10:16.305Z,15.96
2023-03-21T17:12:43.652Z,16.15
2023-03-21T17:15:11.250Z,16.10
2023-03-21T17:17:38.507Z,16.04
2023-03-21T17:20:15.351Z,15.82
2023-03-21T17:22:42.615Z,15.94
2023-03-21T17:25:10.720Z,15.96
2023-03-21T17:27:38.350Z,16.14
2023-03-21T17:30:13.007Z,15.99
2023-03-21T17:32:40.303Z,15.98
2023-03-21T17:35:07.779Z,16.05
2023-03-21T17:37:38.436Z,15.79
2023-03-21T17:40:07.007Z,15.62
2023-03-21T17:42:34.641Z,15.81
2023-03-21T17:45:01.927Z,15.68
2023-03-21T17:47:30.939Z,15.44
2023-03-21T17:49:58.330Z,15.34
2023-03-21T17:52:27.206Z,15.69
2023-03-21T17:54:55.962Z,15.42
2023-03-21T17:57:23.301Z,15.30
2023-03-21T17:59:50.667Z,15.34
2023-03-21T18:02:18.307Z,15.27
2023-03-21T18:04:45.606Z,15.52
2023-03-21T18:07:18.462Z,15.37
2023-03-21T18:09:49.523Z,15.51
2023-03-21T18:12:18.137Z,15.44
2023-03-21T18:14:46.121Z,15.41
2023-03-21T18:17:13.520Z,15.26
2023-03-21T18:19:40.788Z,15.25
2023-03-21T18:22:08.197Z,15.20
2023-03-21T18:24:35.725Z,15.30
2023-03-21T18:27:02.989Z,15.29
2023-03-21T18:32:20.187Z,15.27
2023-03-21T18:34:49.160Z,15.19
2023-03-21T18:37:16.460Z,15.13
2023-03-21T18:39:45.230Z,15.23
2023-03-21T18:42:19.150Z,15.06
2023-03-21T18:44:52.169Z,15.11
2023-03-21T18:47:20.076Z,14.93
2023-03-21T18:50:13.586Z,14.83
2023-03-21T18:52:34.650Z,14.94
2023-03-21T18:55:02.686Z,14.90
2023-03-21T18:57:38.893Z,14.83
2023-03-21T19:00:13.192Z,14.67
2023-03-21T19:02:45.518Z,14.79
2023-03-21T19:05:14.768Z,14.70
2023-03-21T19:07:42.069Z,14.64
2023-03-21T19:10:18.159Z,14.50
2023-03-21T19:12:46.542Z,14.34
2023-03-21T19:15:17.681Z,14.26
2023-03-21T19:18:26.499Z,13.93
2023-03-21T19:20:32.299Z,14.15
2023-03-21T19:22:59.577Z,14.10
2023-03-21T19:25:27.133Z,14.09
2023-03-21T19:27:54.402Z,13.75
2023-03-21T19:30:23.030Z,13.52
2023-03-21T19:32:50.617Z,14.00
2023-03-21T19:35:18.689Z,13.87
2023-03-21T19:37:46.497Z,13.60
2023-03-21T19:40:14.275Z,13.48
2023-03-21T19:42:42.841Z,13.55
2023-03-21T19:45:11.141Z,13.72
2023-03-21T19:47:39.801Z,13.87
2023-03-21T19:52:55.578Z,13.53
2023-03-21T19:55:22.879Z,13.49
2023-03-21T19:57:50.537Z,13.53
2023-03-21T20:00:18.685Z,13.49
2023-03-21T20:02:47.430Z,13.58
2023-03-21T20:05:15.887Z,13.70
2023-03-21T20:07:43.159Z,13.66
2023-03-21T20:10:11.691Z,13.51
2023-03-21T20:12:39.327Z,13.53
2023-03-21T20:15:17.293Z,13.66
2023-03-21T20:17:48.491Z,13.56
2023-03-21T20:20:17.902Z,13.45
2023-03-21T20:25:33.652Z,13.32
2023-03-21T20:28:15.216Z,13.27
2023-03-21T20:30:47.087Z,13.48
2023-03-21T20:33:15.810Z,13.39
2023-03-21T20:36:29.465Z,13.33
2023-03-21T20:38:31.280Z,13.27
2023-03-21T20:40:58.556Z,13.31
2023-03-21T20:44:20.405Z,13.43
2023-03-21T20:46:15.714Z,13.29
2023-03-21T20:48:48.829Z,13.06
2023-03-21T20:52:36.853Z,13.14
2023-03-21T20:54:04.784Z,12.93
2023-03-21T20:56:32.081Z,13.27
2023-03-21T20:59:14.968Z,13.04
2023-03-21T21:01:45.335Z,13.15
2023-03-21T21:04:19.220Z,13.01
2023-03-21T21:06:46.674Z,12.88
2023-03-21T21:09:13.937Z,12.96
2023-03-21T21:14:28.693Z,13.14
2023-03-21T21:16:55.993Z,13.24
2023-03-21T21:19:24.587Z,13.26
2023-03-21T21:21:51.839Z,13.33
2023-03-21T21:24:19.081Z,13.03
2023-03-21T21:26:46.829Z,13.07
2023-03-21T21:29:16.605Z,13.12
2023-03-21T21:31:44.489Z,13.22
2023-03-21T21:34:11.784Z,13.13
2023-03-21T21:36:40.477Z,12.89
2023-03-21T21:39:08.627Z,13.09
2023-03-21T21:41:36.598Z,13.03
2023-03-21T21:44:03.895Z,12.94
2023-03-21T21:46:31.557Z,12.89
2023-03-21T21:48:59.626Z,12.81
2023-03-21T21:51:27.101Z,12.99
2023-03-21T21:53:56.135Z,13.08
2023-03-21T21:56:24.207Z,13.23
2023-03-21T21:58:52.094Z,13.14
2023-03-21T22:01:20.651Z,13.18
2023-03-21T22:03:47.968Z,13.27
2023-03-21T22:06:15.970Z,13.15
2023-03-21T22:08:46.755Z,13.26
2023-03-21T22:11:15.924Z,13.27
2023-03-21T22:13:44.449Z,13.28
2023-03-21T22:16:12.037Z,13.33
2023-03-21T22:18:39.423Z,13.40
2023-03-21T22:21:07.130Z,13.31
2023-03-21T22:23:34.463Z,13.26
2023-03-21T22:26:01.926Z,13.25
2023-03-21T22:28:31.267Z,13.20
2023-03-21T22:30:58.549Z,13.19
2023-03-21T22:33:25.805Z,13.24
2023-03-21T22:35:53.557Z,13.33
2023-03-21T22:38:24.170Z,13.22
2023-03-21T22:40:54.838Z,12.99
2023-03-21T22:43:22.116Z,13.11
2023-03-21T22:45:50.887Z,13.00
2023-03-21T22:48:18.208Z,13.23
2023-03-21T22:50:45.805Z,13.02
2023-03-21T22:53:13.078Z,13.12
2023-03-21T22:55:40.434Z,13.03
2023-03-21T22:58:07.749Z,13.14
2023-03-21T23:00:35.012Z,13.22
2023-03-21T23:03:03.611Z,13.15
2023-03-21T23:05:30.900Z,13.07
2023-03-21T23:07:58.182Z,13.14
2023-03-21T23:10:25.525Z,12.95
2023-03-21T23:12:52.857Z,12.94
2023-03-21T23:15:20.168Z,12.95
2023-03-21T23:17:47.936Z,12.96
2023-03-21T23:20:16.724Z,12.88
2023-03-21T23:22:44.021Z,12.74
2023-03-21T23:25:11.889Z,12.53
2023-03-21T23:27:39.179Z,12.58
2023-03-21T23:30:07.238Z,12.74
2023-03-21T23:32:34.640Z,12.72
2023-03-21T23:35:01.947Z,12.65
2023-03-21T23:37:32.682Z,12.54
2023-03-21T23:39:59.976Z,12.52
2023-03-21T23:42:29.501Z,12.46
2023-03-21T23:44:57.086Z,12.38
2023-03-21T23:47:24.437Z,12.49
2023-03-21T23:49:52.801Z,12.58
2023-03-21T23:52:20.235Z,12.47
2023-03-21T23:54:48.831Z,12.33
2023-03-21T23:57:17.190Z,12.46
2023-03-21T23:59:46.568Z,12.63
